createdAt,value
2022-11-16T00:00:37.264Z,41.42
2022-11-16T00:03:04.934Z,41.61
2022-11-16T00:05:32.081Z,41.51
2022-11-16T00:07:59.203Z,41.64
2022-11-16T00:10:26.311Z,41.77
2022-11-16T00:12:53.415Z,41.56
2022-11-16T00:15:20.568Z,41.78
2022-11-16T00:17:49.048Z,41.85
2022-11-16T00:20:16.433Z,41.75
2022-11-16T00:22:43.716Z,41.80
2022-11-16T00:25:10.817Z,41.82
2022-11-16T00:27:37.917Z,41.61
2022-11-16T00:30:06.269Z,41.76
2022-11-16T00:32:33.396Z,41.79
2022-11-16T00:35:01.863Z,41.84
2022-11-16T00:37:28.974Z,41.64
2022-11-16T00:39:56.083Z,41.67
2022-11-16T00:42:23.209Z,41.63
2022-11-16T00:44:50.343Z,41.39
2022-11-16T00:47:17.457Z,41.61
2022-11-16T00:49:44.552Z,41.25
2022-11-16T00:52:13.046Z,41.36
2022-11-16T00:54:40.148Z,41.55
2022-11-16T00:57:07.247Z,41.45
2022-11-16T00:59:34.379Z,41.60
2022-11-16T01:02:01.483Z,41.85
2022-11-16T01:04:28.800Z,41.71
2022-11-16T01:06:55.994Z,41.72
2022-11-16T01:09:24.662Z,41.79
2022-11-16T01:11:51.763Z,41.80
2022-11-16T01:14:18.977Z,41.74
2022-11-16T01:16:48.982Z,41.98
2022-11-16T01:19:16.228Z,41.86
2022-11-16T01:21:43.339Z,41.73
2022-11-16T01:24:10.455Z,41.84
2022-11-16T01:26:38.939Z,41.88
2022-11-16T01:29:06.227Z,41.73
2022-11-16T01:31:33.382Z,41.74
2022-11-16T01:34:00.484Z,41.67
2022-11-16T01:36:27.812Z,41.56
2022-11-16T01:38:54.905Z,41.49
2022-11-16T01:41:24.454Z,41.68
2022-11-16T01:43:56.090Z,41.56
2022-11-16T01:46:24.178Z,41.37
2022-11-16T01:48:57.110Z,41.59
2022-11-16T01:51:25.484Z,41.59
2022-11-16T01:53:52.675Z,41.63
2022-11-16T01:56:21.072Z,41.65
2022-11-16T01:58:49.626Z,41.75
2022-11-16T02:01:18.194Z,41.86
2022-11-16T02:03:45.401Z,41.72
2022-11-16T02:06:45.622Z,41.94
2022-11-16T02:09:28.381Z,42.00
2022-11-16T02:12:14.841Z,41.94
2022-11-16T02:14:59.436Z,42.06
2022-11-16T02:17:36.570Z,42.02
2022-11-16T02:20:25.807Z,41.91
2022-11-16T02:23:22.107Z,41.89
2022-11-16T02:26:00.614Z,41.72
2022-11-16T02:28:37.722Z,41.56
2022-11-16T02:31:11.146Z,41.74
2022-11-16T02:33:41.035Z,41.47
2022-11-16T02:36:13.166Z,41.46
2022-11-16T02:38:46.413Z,41.35
2022-11-16T02:41:18.082Z,41.57
2022-11-16T02:43:48.933Z,41.72
2022-11-16T02:46:21.452Z,41.72
2022-11-16T02:48:53.079Z,41.79
2022-11-16T02:51:22.677Z,41.82
2022-11-16T02:54:01.025Z,41.91
2022-11-16T02:56:28.734Z,41.93
2022-11-16T02:58:57.634Z,41.96
2022-11-16T03:01:32.570Z,41.88
2022-11-16T03:04:03.305Z,41.92
2022-11-16T03:06:33.084Z,42.13
2022-11-16T03:09:04.517Z,42.04
2022-11-16T03:11:35.104Z,42.16
2022-11-16T03:14:06.936Z,41.97
2022-11-16T03:16:38.761Z,41.77
2022-11-16T03:19:10.393Z,41.75
2022-11-16T03:21:41.455Z,41.87
2022-11-16T03:24:08.780Z,41.75
2022-11-16T03:26:46.244Z,41.43
2022-11-16T03:29:20.560Z,41.53
2022-11-16T03:31:52.374Z,41.45
2022-11-16T03:34:25.567Z,41.73
2022-11-16T03:36:53.870Z,41.74
2022-11-16T03:39:25.539Z,41.88
2022-11-16T03:41:54.624Z,41.88
2022-11-16T03:44:22.325Z,41.79
2022-11-16T03:46:50.874Z,41.77
2022-11-16T03:49:21.044Z,42.00
2022-11-16T03:51:48.709Z,41.92
2022-11-16T03:54:16.171Z,42.04
2022-11-16T03:56:43.340Z,41.95
2022-11-16T03:59:10.473Z,42.11
2022-11-16T04:01:41.847Z,42.07
2022-11-16T04:04:13.055Z,42.29
2022-11-16T04:06:40.081Z,42.16
2022-11-16T04:09:09.206Z,41.95
2022-11-16T04:11:37.023Z,41.91
2022-11-16T04:14:08.917Z,41.80
2022-11-16T04:16:36.487Z,41.63
2022-11-16T04:19:03.658Z,41.72
2022-11-16T04:21:35.696Z,41.49
2022-11-16T04:24:02.964Z,41.40
2022-11-16T04:26:30.216Z,41.67
2022-11-16T04:28:57.337Z,41.65
2022-11-16T04:31:24.603Z,41.87
2022-11-16T04:33:52.722Z,41.90
2022-11-16T04:36:20.835Z,42.02
2022-11-16T04:38:49.426Z,41.86
2022-11-16T04:41:16.534Z,41.99
2022-11-16T04:43:43.633Z,42.03
2022-11-16T04:46:10.746Z,41.90
2022-11-16T04:48:37.845Z,41.94
2022-11-16T04:51:05.161Z,41.88
2022-11-16T04:53:32.278Z,41.97
2022-11-16T04:56:01.191Z,42.14
2022-11-16T04:58:28.336Z,41.95
2022-11-16T05:00:55.534Z,41.91
2022-11-16T05:03:22.642Z,41.70
2022-11-16T05:05:50.086Z,41.71
2022-11-16T05:08:17.216Z,41.68
2022-11-16T05:10:44.310Z,41.82
2022-11-16T05:13:12.763Z,41.56
2022-11-16T05:15:40.123Z,41.73
2022-11-16T05:18:07.219Z,41.87
2022-11-16T05:20:34.338Z,41.84
2022-11-16T05:23:01.482Z,41.85
2022-11-16T05:25:33.814Z,43.57
2022-11-16T05:28:03.526Z,43.56
2022-11-16T05:30:31.981Z,43.10
2022-11-16T05:32:59.101Z,42.43
2022-11-16T05:35:26.239Z,42.29
2022-11-16T05:37:53.378Z,42.62
2022-11-16T05:40:20.478Z,42.47
2022-11-16T05:42:47.727Z,42.23
2022-11-16T05:45:20.730Z,42.20
2022-11-16T05:47:49.573Z,42.36
2022-11-16T05:50:16.865Z,42.40
2022-11-16T05:52:43.977Z,42.22
2022-11-16T05:55:11.127Z,42.27
2022-11-16T05:57:38.221Z,42.17
2022-11-16T06:00:06.542Z,42.07
2022-11-16T06:02:33.647Z,42.43
2022-11-16T06:05:02.169Z,42.85
2022-11-16T06:07:29.320Z,43.06
2022-11-16T06:09:56.503Z,43.02
2022-11-16T06:12:23.619Z,43.67
2022-11-16T06:14:50.749Z,43.09
2022-11-16T06:17:18.023Z,42.96
2022-11-16T06:19:45.140Z,43.34
2022-11-16T06:22:13.614Z,43.15
2022-11-16T06:24:42.165Z,43.04
2022-11-16T06:27:09.258Z,43.02
2022-11-16T06:29:36.363Z,43.35
2022-11-16T06:32:03.665Z,43.22
2022-11-16T06:34:30.776Z,43.10
2022-11-16T06:36:57.878Z,43.35
2022-11-16T06:39:26.358Z,43.31
2022-11-16T06:41:53.456Z,43.17
2022-11-16T06:44:20.599Z,43.20
2022-11-16T06:46:47.712Z,42.86
2022-11-16T06:49:14.817Z,42.97
2022-11-16T06:51:41.929Z,42.97
2022-11-16T06:54:09.167Z,42.99
2022-11-16T06:56:37.666Z,42.96
2022-11-16T06:59:04.801Z,43.05
2022-11-16T07:01:31.974Z,43.10
2022-11-16T07:03:59.128Z,43.21
2022-11-16T07:06:26.241Z,42.99
2022-11-16T07:08:53.447Z,43.25
2022-11-16T07:11:20.567Z,43.16
2022-11-16T07:13:49.022Z,42.96
2022-11-16T07:16:16.147Z,43.38
2022-11-16T07:18:43.256Z,43.06
2022-11-16T07:21:12.937Z,43.25
2022-11-16T07:23:40.594Z,43.24
2022-11-16T07:26:09.044Z,43.29
2022-11-16T07:28:36.877Z,43.15
2022-11-16T07:31:07.610Z,43.18
2022-11-16T07:33:35.167Z,43.24
2022-11-16T07:36:02.807Z,43.14
2022-11-16T07:38:31.680Z,43.01
2022-11-16T07:41:02.123Z,42.94
2022-11-16T07:43:29.706Z,43.37
2022-11-16T07:46:00.351Z,42.93
2022-11-16T07:48:42.559Z,42.84
2022-11-16T07:51:11.724Z,42.85
2022-11-16T07:53:39.626Z,42.98
2022-11-16T07:56:08.027Z,42.84
2022-11-16T07:58:36.382Z,42.78
2022-11-16T08:01:04.392Z,42.88
2022-11-16T08:03:31.700Z,42.71
2022-11-16T08:06:02.153Z,43.62
2022-11-16T08:08:29.539Z,43.19
2022-11-16T08:10:59.618Z,43.10
2022-11-16T08:13:27.077Z,42.90
2022-11-16T08:15:54.215Z,43.07
2022-11-16T08:18:21.320Z,43.27
2022-11-16T08:20:48.422Z,43.14
2022-11-16T08:23:16.879Z,43.10
2022-11-16T08:25:43.993Z,42.85
2022-11-16T08:28:11.193Z,42.70
2022-11-16T08:30:38.844Z,42.32
2022-11-16T08:33:06.006Z,42.86
2022-11-16T08:35:33.726Z,42.65
2022-11-16T08:38:00.835Z,42.44
2022-11-16T08:40:29.414Z,42.59
2022-11-16T08:42:56.518Z,42.48
2022-11-16T08:45:23.933Z,42.53
2022-11-16T08:47:53.685Z,42.46
2022-11-16T08:50:33.486Z,42.44
2022-11-16T08:53:06.918Z,42.49
2022-11-16T08:55:35.445Z,42.31
2022-11-16T08:58:02.566Z,42.33
2022-11-16T09:00:29.682Z,42.70
2022-11-16T09:02:56.830Z,42.60
2022-11-16T09:05:23.964Z,42.75
2022-11-16T09:07:51.069Z,42.59
2022-11-16T09:10:18.266Z,42.70
2022-11-16T09:12:46.726Z,42.85
2022-11-16T09:15:13.822Z,42.65
2022-11-16T09:17:40.944Z,42.63
2022-11-16T09:20:08.938Z,42.52
2022-11-16T09:22:36.084Z,42.63
2022-11-16T09:25:03.791Z,42.81
2022-11-16T09:27:30.910Z,42.61
2022-11-16T09:29:59.360Z,42.50
2022-11-16T09:32:26.605Z,42.54
2022-11-16T09:34:53.712Z,42.60
2022-11-16T09:37:20.861Z,42.58
2022-11-16T09:39:48.003Z,42.60
2022-11-16T09:42:28.536Z,42.53
2022-11-16T09:45:12.335Z,42.61
2022-11-16T09:47:48.239Z,42.77
2022-11-16T09:50:35.812Z,42.72
2022-11-16T09:53:16.806Z,42.72
2022-11-16T09:55:48.873Z,42.91
2022-11-16T09:58:22.018Z,42.91
2022-11-16T10:00:56.227Z,42.79
2022-11-16T10:03:25.330Z,42.73
2022-11-16T10:05:59.232Z,42.94
2022-11-16T10:08:39.959Z,43.08
2022-11-16T10:11:42.610Z,43.09
2022-11-16T10:14:26.642Z,42.81
2022-11-16T10:17:00.966Z,42.33
2022-11-16T10:19:42.631Z,42.32
2022-11-16T10:22:26.317Z,42.27
2022-11-16T10:24:57.817Z,41.84
2022-11-16T10:27:43.983Z,41.74
2022-11-16T10:30:14.555Z,41.10
2022-11-16T10:32:49.413Z,41.07
2022-11-16T10:35:22.638Z,41.25
2022-11-16T10:37:51.357Z,41.74
2022-11-16T10:40:22.248Z,42.01
2022-11-16T10:42:59.399Z,41.97
2022-11-16T10:45:35.063Z,41.47
2022-11-16T10:48:14.493Z,40.83
2022-11-16T10:50:46.660Z,40.86
2022-11-16T10:53:14.350Z,40.81
2022-11-16T10:55:41.724Z,40.33
2022-11-16T10:58:08.821Z,40.63
2022-11-16T11:00:38.855Z,40.85
2022-11-16T11:03:07.808Z,40.93
2022-11-16T11:05:35.668Z,40.70
2022-11-16T11:08:05.266Z,40.67
2022-11-16T11:10:34.531Z,40.87
2022-11-16T11:13:17.755Z,40.64
2022-11-16T11:15:45.121Z,40.55
2022-11-16T11:18:26.089Z,40.67
2022-11-16T11:21:05.998Z,40.53
2022-11-16T11:23:41.178Z,40.74
2022-11-16T11:26:24.227Z,40.71
2022-11-16T11:28:51.694Z,40.78
2022-11-16T11:31:24.022Z,41.03
2022-11-16T11:33:55.515Z,40.95
2022-11-16T11:36:24.890Z,41.10
2022-11-16T11:38:57.892Z,41.40
2022-11-16T11:41:25.423Z,41.38
2022-11-16T11:44:01.843Z,41.48
2022-11-16T11:47:06.447Z,41.33
2022-11-16T11:49:33.213Z,41.24
2022-11-16T11:52:05.918Z,41.31
2022-11-16T11:54:39.264Z,41.03
2022-11-16T11:57:14.214Z,40.89
2022-11-16T11:59:41.559Z,41.03
2022-11-16T12:02:25.722Z,40.89
2022-11-16T12:05:28.165Z,40.92
2022-11-16T12:08:13.438Z,41.35
2022-11-16T12:10:48.857Z,41.21
2022-11-16T12:13:34.562Z,41.14
2022-11-16T12:16:11.181Z,41.19
2022-11-16T12:18:58.437Z,41.24
2022-11-16T12:21:39.519Z,41.23
2022-11-16T12:24:24.145Z,41.18
2022-11-16T12:27:02.112Z,41.44
2022-11-16T12:29:43.296Z,41.45
2022-11-16T12:32:31.991Z,41.39
2022-11-16T12:35:21.489Z,41.28
2022-11-16T12:38:02.145Z,41.70
2022-11-16T12:40:41.177Z,41.54
2022-11-16T12:43:18.696Z,41.45
2022-11-16T12:46:03.230Z,41.57
2022-11-16T12:48:45.013Z,41.50
2022-11-16T12:51:28.871Z,41.36
2022-11-16T12:54:20.626Z,41.34
2022-11-16T12:56:58.143Z,41.50
2022-11-16T12:59:45.294Z,41.49
2022-11-16T13:02:23.318Z,41.71
2022-11-16T13:04:56.259Z,41.58
2022-11-16T13:07:27.770Z,41.70
2022-11-16T13:10:02.041Z,41.65
2022-11-16T13:12:31.957Z,41.94
2022-11-16T13:15:02.023Z,41.81
2022-11-16T13:17:33.233Z,41.83
2022-11-16T13:20:20.193Z,41.78
2022-11-16T13:22:56.856Z,41.89
2022-11-16T13:25:33.534Z,41.85
2022-11-16T13:28:10.312Z,42.22
2022-11-16T13:30:45.907Z,42.04
2022-11-16T13:33:27.265Z,42.10
2022-11-16T13:35:54.687Z,42.34
2022-11-16T13:38:49.606Z,42.36
2022-11-16T13:41:30.550Z,42.21
2022-11-16T13:43:58.307Z,42.14
2022-11-16T13:46:55.439Z,42.32
2022-11-16T13:49:30.899Z,42.16
2022-11-16T13:52:11.581Z,42.39
2022-11-16T13:54:51.215Z,42.57
2022-11-16T13:57:25.201Z,42.40
2022-11-16T14:00:08.568Z,42.37
2022-11-16T14:02:37.111Z,42.40
2022-11-16T14:05:05.408Z,42.54
2022-11-16T14:07:42.401Z,42.48
2022-11-16T14:10:11.331Z,42.46
2022-11-16T14:12:57.536Z,42.47
2022-11-16T14:15:29.950Z,42.51
2022-11-16T14:18:00.727Z,42.60
2022-11-16T14:20:39.581Z,42.70
2022-11-16T14:23:16.210Z,42.69
2022-11-16T14:25:50.311Z,42.79
2022-11-16T14:28:28.530Z,42.69
2022-11-16T14:31:06.941Z,42.80
2022-11-16T14:33:37.360Z,42.61
2022-11-16T14:36:07.786Z,42.59
2022-11-16T14:38:37.567Z,42.53
2022-11-16T14:41:06.992Z,42.55
2022-11-16T14:43:41.778Z,42.47
2022-11-16T14:46:20.083Z,42.51
2022-11-16T14:48:48.029Z,42.46
2022-11-16T14:51:19.393Z,42.56
2022-11-16T14:53:50.327Z,42.47
2022-11-16T14:56:18.693Z,42.57
2022-11-16T14:58:54.842Z,42.23
2022-11-16T15:01:25.071Z,42.56
2022-11-16T15:03:56.218Z,42.69
2022-11-16T15:06:25.858Z,42.65
2022-11-16T15:08:56.799Z,42.77
2022-11-16T15:11:27.004Z,42.91
2022-11-16T15:13:55.713Z,42.82
2022-11-16T15:16:22.841Z,42.80
2022-11-16T15:18:57.922Z,42.68
2022-11-16T15:21:25.341Z,42.60
2022-11-16T15:24:15.439Z,42.81
2022-11-16T15:26:39.897Z,42.58
2022-11-16T15:29:16.623Z,42.60
2022-11-16T15:31:44.173Z,42.43
2022-11-16T15:34:12.104Z,42.56
2022-11-16T15:36:40.298Z,42.57
2022-11-16T15:39:12.955Z,42.93
2022-11-16T15:41:40.625Z,42.50
2022-11-16T15:44:14.781Z,42.62
2022-11-16T15:46:46.148Z,42.67
2022-11-16T15:49:24.736Z,42.62
2022-11-16T15:51:51.885Z,42.68
2022-11-16T15:54:23.962Z,42.60
2022-11-16T15:56:54.838Z,42.75
2022-11-16T15:59:26.789Z,42.89
2022-11-16T16:01:56.210Z,42.97
2022-11-16T16:04:24.271Z,43.24
2022-11-16T16:06:52.942Z,42.98
2022-11-16T16:09:24.341Z,43.07
2022-11-16T16:11:52.763Z,43.35
2022-11-16T16:14:28.118Z,43.25
2022-11-16T16:16:58.076Z,44.27
2022-11-16T16:19:33.957Z,43.83
2022-11-16T16:22:02.403Z,44.50
2022-11-16T16:24:43.360Z,44.84
2022-11-16T16:27:15.543Z,44.99
2022-11-16T16:29:42.807Z,44.51
2022-11-16T16:32:20.798Z,44.44
2022-11-16T16:34:47.913Z,44.28
2022-11-16T16:37:15.137Z,44.20
2022-11-16T16:39:42.295Z,44.05
2022-11-16T16:42:11.750Z,43.95
2022-11-16T16:44:38.920Z,43.89
2022-11-16T16:47:06.574Z,43.90
2022-11-16T16:49:35.704Z,44.01
2022-11-16T16:52:03.750Z,43.79
2022-11-16T16:54:30.886Z,43.93
2022-11-16T16:56:58.062Z,43.74
2022-11-16T16:59:25.372Z,43.79
2022-11-16T17:01:52.536Z,43.69
2022-11-16T17:04:19.787Z,43.46
2022-11-16T17:06:50.707Z,43.53
2022-11-16T17:09:17.912Z,43.24
2022-11-16T17:11:46.365Z,43.21
2022-11-16T17:14:13.468Z,43.10
2022-11-16T17:16:40.592Z,43.28
2022-11-16T17:19:07.792Z,43.19
2022-11-16T17:21:34.897Z,43.14
2022-11-16T17:24:03.844Z,43.06
2022-11-16T17:26:30.984Z,43.10
2022-11-16T17:28:58.497Z,43.11
2022-11-16T17:31:26.392Z,43.17
2022-11-16T17:33:53.506Z,42.99
2022-11-16T17:36:20.816Z,43.00
2022-11-16T17:38:47.916Z,43.02
2022-11-16T17:41:18.817Z,43.17
2022-11-16T17:43:46.606Z,43.03
2022-11-16T17:46:15.455Z,43.00
2022-11-16T17:48:44.065Z,42.76
2022-11-16T17:51:13.372Z,42.96
2022-11-16T17:53:41.334Z,42.88
2022-11-16T17:56:10.651Z,42.73
2022-11-16T17:58:39.382Z,42.87
2022-11-16T18:01:06.551Z,42.81
2022-11-16T18:03:35.729Z,42.67
2022-11-16T18:06:04.034Z,42.66
2022-11-16T18:08:31.709Z,42.65
2022-11-16T18:11:03.990Z,42.66
2022-11-16T18:13:31.286Z,42.64
2022-11-16T18:16:04.111Z,42.59
2022-11-16T18:18:31.408Z,42.51
2022-11-16T18:20:59.645Z,42.68
2022-11-16T18:23:26.817Z,42.81
2022-11-16T18:25:54.179Z,42.83
2022-11-16T18:28:21.577Z,42.62
2022-11-16T18:30:48.681Z,42.70
2022-11-16T18:33:17.210Z,42.65
2022-11-16T18:35:44.893Z,42.61
2022-11-16T18:38:11.984Z,42.72
2022-11-16T18:40:39.407Z,42.68
2022-11-16T18:43:06.692Z,42.92
2022-11-16T18:45:33.783Z,42.64
2022-11-16T18:48:01.059Z,42.58
2022-11-16T18:50:29.493Z,42.48
2022-11-16T18:52:56.852Z,42.67
2022-11-16T18:55:24.167Z,42.49
2022-11-16T18:57:51.274Z,42.33
2022-11-16T19:00:19.258Z,42.38
2022-11-16T19:02:46.394Z,42.50
2022-11-16T19:05:13.599Z,42.54
2022-11-16T19:07:42.062Z,42.58
2022-11-16T19:10:09.905Z,42.50
2022-11-16T19:12:37.014Z,42.60
2022-11-16T19:15:04.795Z,42.62
2022-11-16T19:17:31.941Z,42.59
2022-11-16T19:19:59.034Z,42.51
2022-11-16T19:22:26.133Z,42.38
2022-11-16T19:24:54.646Z,42.64
2022-11-16T19:27:21.761Z,42.67
2022-11-16T19:29:48.867Z,42.64
2022-11-16T19:32:16.009Z,42.70
2022-11-16T19:34:43.153Z,42.71
2022-11-16T19:37:10.282Z,42.51
2022-11-16T19:39:37.416Z,42.40
2022-11-16T19:42:05.999Z,42.34
2022-11-16T19:44:33.095Z,42.58
2022-11-16T19:47:00.228Z,42.41
2022-11-16T19:49:27.333Z,42.13
2022-11-16T19:51:54.432Z,42.13
2022-11-16T19:54:21.553Z,42.23
2022-11-16T19:56:54.738Z,42.26
2022-11-16T19:59:23.830Z,42.29
2022-11-16T20:01:50.935Z,42.41
2022-11-16T20:04:18.045Z,42.47
2022-11-16T20:06:45.166Z,42.51
2022-11-16T20:09:12.268Z,42.48
2022-11-16T20:11:40.628Z,42.43
2022-11-16T20:14:09.701Z,42.49
2022-11-16T20:16:40.185Z,42.72
2022-11-16T20:19:09.043Z,42.51
2022-11-16T20:21:38.140Z,42.55
2022-11-16T20:24:07.368Z,42.51
2022-11-16T20:26:36.376Z,42.49
2022-11-16T20:29:04.004Z,42.34
2022-11-16T20:31:32.940Z,42.42
2022-11-16T20:34:03.865Z,42.26
2022-11-16T20:36:32.546Z,42.36
2022-11-16T20:39:00.672Z,42.34
2022-11-16T20:41:29.594Z,42.22
2022-11-16T20:43:58.117Z,42.18
2022-11-16T20:46:26.928Z,42.42
2022-11-16T20:48:54.724Z,42.21
2022-11-16T20:51:23.396Z,42.46
2022-11-16T20:53:51.030Z,42.40
2022-11-16T20:56:19.628Z,42.48
2022-11-16T20:58:47.543Z,42.50
2022-11-16T21:01:16.466Z,42.36
2022-11-16T21:03:44.241Z,42.69
2022-11-16T21:06:12.132Z,42.46
2022-11-16T21:08:41.283Z,42.58
2022-11-16T21:11:12.342Z,42.47
2022-11-16T21:13:39.865Z,42.52
2022-11-16T21:16:09.603Z,42.57
2022-11-16T21:18:37.262Z,42.67
2022-11-16T21:21:06.260Z,42.71
2022-11-16T21:23:35.643Z,42.46
2022-11-16T21:26:06.000Z,42.49
2022-11-16T21:28:33.332Z,42.23
2022-11-16T21:31:02.113Z,42.20
2022-11-16T21:33:29.553Z,42.20
2022-11-16T21:35:56.938Z,42.23
2022-11-16T21:38:25.058Z,42.16
2022-11-16T21:40:52.191Z,42.24
2022-11-16T21:43:20.664Z,42.07
2022-11-16T21:45:48.600Z,42.46
2022-11-16T21:48:15.762Z,42.21
2022-11-16T21:50:43.360Z,42.43
2022-11-16T21:53:10.505Z,42.37
2022-11-16T21:55:37.632Z,42.38
2022-11-16T21:58:04.746Z,42.77
2022-11-16T22:00:33.340Z,42.58
2022-11-16T22:03:00.509Z,42.59
2022-11-16T22:05:27.609Z,42.84
2022-11-16T22:07:54.731Z,42.68
2022-11-16T22:10:22.127Z,42.75
2022-11-16T22:12:49.224Z,42.85
2022-11-16T22:15:16.425Z,42.44
2022-11-16T22:17:45.211Z,42.30
2022-11-16T22:20:12.383Z,42.45
2022-11-16T22:22:39.502Z,42.36
2022-11-16T22:25:07.554Z,42.48
2022-11-16T22:27:47.021Z,42.33
2022-11-16T22:30:22.054Z,42.26
2022-11-16T22:32:50.501Z,42.26
2022-11-16T22:35:17.613Z,42.43
2022-11-16T22:37:44.728Z,42.36
2022-11-16T22:40:17.590Z,42.23
2022-11-16T22:42:45.783Z,42.44
2022-11-16T22:45:12.908Z,42.37
2022-11-16T22:47:40.027Z,42.60
2022-11-16T22:50:09.106Z,42.59
2022-11-16T22:52:36.212Z,42.60
2022-11-16T22:55:03.592Z,42.62
2022-11-16T22:57:30.717Z,42.57
2022-11-16T22:59:57.822Z,42.60
2022-11-16T23:02:24.941Z,42.52
2022-11-16T23:04:52.092Z,42.75
2022-11-16T23:07:20.643Z,42.89
2022-11-16T23:09:47.769Z,42.61
2022-11-16T23:12:15.041Z,42.64
2022-11-16T23:14:42.144Z,42.61
2022-11-16T23:17:09.381Z,42.68
2022-11-16T23:19:36.563Z,42.53
2022-11-16T23:22:04.437Z,42.36
2022-11-16T23:24:32.895Z,42.41
2022-11-16T23:27:02.348Z,42.41
2022-11-16T23:29:29.498Z,42.58
2022-11-16T23:31:56.599Z,42.65
2022-11-16T23:34:23.739Z,42.49
2022-11-16T23:36:50.844Z,42.57
2022-11-16T23:39:18.086Z,42.68
2022-11-16T23:41:46.574Z,42.76
2022-11-16T23:44:13.676Z,42.77
2022-11-16T23:46:41.083Z,42.73
2022-11-16T23:49:08.221Z,42.84
2022-11-16T23:51:35.310Z,42.77
2022-11-16T23:54:02.394Z,42.81
2022-11-16T23:56:29.515Z,42.88
2022-11-16T23:58:58.116Z,42.75
